createdAt,value
2023-11-15T00:01:49.114Z,99645.38
2023-11-15T00:04:51.909Z,99654.47
2023-11-15T00:07:56.760Z,99647.56
2023-11-15T00:10:59.815Z,99652.00
2023-11-15T00:14:02.189Z,99652.28
2023-11-15T00:17:05.163Z,99637.31
2023-11-15T00:20:09.418Z,99644.31
2023-11-15T00:23:12.284Z,99662.44
2023-11-15T00:26:15.264Z,99669.25
2023-11-15T00:29:19.233Z,99675.47
2023-11-15T00:32:24.604Z,99686.09
2023-11-15T00:35:27.656Z,99668.53
2023-11-15T00:38:30.310Z,99668.91
2023-11-15T00:41:33.477Z,99654.38
2023-11-15T00:44:36.092Z,99653.53
2023-11-15T00:47:39.309Z,99658.81
2023-11-15T00:50:41.686Z,99662.28
2023-11-15T00:53:44.814Z,99650.00
2023-11-15T00:56:47.432Z,99650.25
2023-11-15T00:59:54.837Z,99653.16
2023-11-15T01:02:58.566Z,99656.59
2023-11-15T01:06:02.539Z,99655.81
2023-11-15T01:09:09.153Z,99654.12
2023-11-15T01:12:11.870Z,99655.81
2023-11-15T01:15:14.640Z,99654.19
2023-11-15T01:18:17.850Z,99648.16
2023-11-15T01:21:20.556Z,99649.72
2023-11-15T01:24:23.970Z,99648.69
2023-11-15T01:27:26.776Z,99639.66
2023-11-15T01:30:29.954Z,99644.97
2023-11-15T01:33:32.834Z,99636.31
2023-11-15T01:36:36.399Z,99638.91
2023-11-15T01:39:38.990Z,99662.22
2023-11-15T01:42:42.202Z,99660.59
2023-11-15T01:45:48.037Z,99660.41
2023-11-15T01:48:51.353Z,99658.41
2023-11-15T01:51:54.777Z,99648.94
2023-11-15T01:54:57.870Z,99644.41
2023-11-15T01:58:00.532Z,99644.50
2023-11-15T02:01:05.135Z,99625.84
2023-11-15T02:04:09.296Z,99628.66
2023-11-15T02:07:12.004Z,99639.16
2023-11-15T02:10:15.051Z,99640.72
2023-11-15T02:13:27.442Z,99628.44
2023-11-15T02:16:30.132Z,99631.12
2023-11-15T02:19:32.846Z,99631.12
2023-11-15T02:22:43.659Z,99630.34
2023-11-15T02:25:45.938Z,99621.00
2023-11-15T02:28:48.875Z,99622.56
2023-11-15T02:31:51.211Z,99620.94
2023-11-15T02:34:56.045Z,99606.31
2023-11-15T02:37:59.593Z,99599.34
2023-11-15T02:41:02.578Z,99597.72
2023-11-15T02:44:05.709Z,99602.97
2023-11-15T02:47:08.486Z,99595.38
2023-11-15T02:50:11.066Z,99601.34
2023-11-15T02:53:13.734Z,99595.13
2023-11-15T02:56:16.441Z,99581.63
2023-11-15T02:59:20.339Z,99591.44
2023-11-15T03:02:23.082Z,99579.91
2023-11-15T03:05:26.055Z,99569.53
2023-11-15T03:08:28.656Z,99563.50
2023-11-15T03:11:31.535Z,99555.03
2023-11-15T03:14:34.201Z,99570.62
2023-11-15T03:17:37.391Z,99599.03
2023-11-15T03:20:39.844Z,99575.31
2023-11-15T03:23:42.737Z,99588.00
2023-11-15T03:26:45.270Z,99580.38
2023-11-15T03:29:48.088Z,99565.09
2023-11-15T03:32:50.798Z,99556.03
2023-11-15T03:35:53.719Z,99577.69
2023-11-15T03:38:56.337Z,99578.66
2023-11-15T03:41:59.245Z,99572.94
2023-11-15T03:45:01.818Z,99585.88
2023-11-15T03:48:05.014Z,99572.50
2023-11-15T03:51:08.259Z,99584.94
2023-11-15T03:54:11.067Z,99592.72
2023-11-15T03:57:13.391Z,99589.34
2023-11-15T04:00:18.821Z,99578.56
2023-11-15T04:03:23.471Z,99573.38
2023-11-15T04:06:28.576Z,99584.22
2023-11-15T04:09:34.384Z,99584.53
2023-11-15T04:12:38.525Z,99579.47
2023-11-15T04:15:41.513Z,99581.22
2023-11-15T04:18:45.003Z,99585.62
2023-11-15T04:22:04.805Z,99580.81
2023-11-15T04:25:14.008Z,99580.66
2023-11-15T04:28:17.182Z,99584.94
2023-11-15T04:31:19.775Z,99583.38
2023-11-15T04:34:22.634Z,99567.00
2023-11-15T04:37:25.458Z,99571.66
2023-11-15T04:40:29.334Z,99565.63
2023-11-15T04:43:31.606Z,99560.53
2023-11-15T04:46:37.008Z,99557.41
2023-11-15T04:49:41.900Z,99543.06
2023-11-15T04:52:44.672Z,99566.59
2023-11-15T04:55:47.200Z,99563.31
2023-11-15T04:58:50.990Z,99557.56
2023-11-15T05:01:53.424Z,99560.16
2023-11-15T05:04:56.595Z,99555.62
2023-11-15T05:07:59.255Z,99563.44
2023-11-15T05:11:03.071Z,99557.72
2023-11-15T05:14:05.698Z,99555.12
2023-11-15T05:17:10.171Z,99549.75
2023-11-15T05:20:12.880Z,99550.66
2023-11-15T05:23:15.716Z,99551.06
2023-11-15T05:26:18.527Z,99552.53
2023-11-15T05:29:21.295Z,99554.28
2023-11-15T05:32:23.849Z,99560.56
2023-11-15T05:35:27.258Z,99562.47
2023-11-15T05:38:29.575Z,99560.72
2023-11-15T05:41:32.126Z,99553.25
2023-11-15T05:44:34.930Z,99550.91
2023-11-15T05:47:39.283Z,99552.63
2023-11-15T05:50:41.928Z,99545.94
2023-11-15T05:53:48.565Z,99550.81
2023-11-15T05:56:51.245Z,99540.62
2023-11-15T05:59:54.129Z,99555.12
2023-11-15T06:02:57.691Z,99546.59
2023-11-15T06:06:00.733Z,99552.75
2023-11-15T06:09:05.599Z,99558.47
2023-11-15T06:12:08.606Z,99561.91
2023-11-15T06:15:14.227Z,99565.97
2023-11-15T06:18:17.412Z,99572.72
2023-11-15T06:21:21.903Z,99576.81
2023-11-15T06:24:25.189Z,99569.22
2023-11-15T06:27:28.349Z,99569.97
2023-11-15T06:30:31.269Z,99573.25
2023-11-15T06:33:34.344Z,99577.53
2023-11-15T06:36:37.687Z,99583.47
2023-11-15T06:39:42.363Z,99584.97
2023-11-15T06:42:45.313Z,99566.63
2023-11-15T06:45:47.805Z,99582.72
2023-11-15T06:48:51.181Z,99577.34
2023-11-15T06:51:53.688Z,99580.97
2023-11-15T06:54:57.325Z,99583.22
2023-11-15T06:58:01.151Z,99587.19
2023-11-15T07:01:06.629Z,99578.59
2023-11-15T07:04:09.217Z,99585.81
2023-11-15T07:07:12.509Z,99570.66
2023-11-15T07:10:16.518Z,99576.31
2023-11-15T07:13:22.270Z,99580.47
2023-11-15T07:16:24.928Z,99586.44
2023-11-15T07:19:28.994Z,99589.78
2023-11-15T07:22:31.527Z,99602.59
2023-11-15T07:25:35.122Z,99609.22
2023-11-15T07:28:42.779Z,99611.53
2023-11-15T07:31:54.320Z,99619.94
2023-11-15T07:34:57.342Z,99630.88
2023-11-15T07:38:00.240Z,99647.22
2023-11-15T07:41:03.030Z,99646.50
2023-11-15T07:44:06.458Z,99649.87
2023-11-15T07:47:08.731Z,99659.00
2023-11-15T07:50:12.180Z,99652.41
2023-11-15T07:53:14.731Z,99655.09
2023-11-15T07:56:20.193Z,99662.78
2023-11-15T07:59:23.041Z,99681.81
2023-11-15T08:02:26.124Z,99684.16
2023-11-15T08:05:28.977Z,99676.44
2023-11-15T08:08:31.844Z,99687.38
2023-11-15T08:11:38.097Z,99669.31
2023-11-15T08:14:40.679Z,99677.38
2023-11-15T08:17:44.558Z,99697.56
2023-11-15T08:20:48.093Z,99698.88
2023-11-15T08:23:51.100Z,99707.28
2023-11-15T08:26:56.859Z,99709.59
2023-11-15T08:30:01.142Z,99709.50
2023-11-15T08:33:07.069Z,99713.50
2023-11-15T08:36:10.426Z,99711.66
2023-11-15T08:39:14.309Z,99707.88
2023-11-15T08:42:17.459Z,99712.47
2023-11-15T08:45:21.114Z,99707.16
2023-11-15T08:48:24.462Z,99717.44
2023-11-15T08:51:26.933Z,99710.84
2023-11-15T08:54:29.653Z,99720.50
2023-11-15T08:57:32.022Z,99717.56
2023-11-15T09:00:34.727Z,99737.91
2023-11-15T09:03:40.215Z,99734.09
2023-11-15T09:06:43.075Z,99762.25
2023-11-15T09:09:47.004Z,99755.59
2023-11-15T09:12:50.525Z,99754.69
2023-11-15T09:15:53.344Z,99760.91
2023-11-15T09:19:00.752Z,99759.72
2023-11-15T09:22:04.810Z,99766.78
2023-11-15T09:25:12.633Z,99781.69
2023-11-15T09:28:15.745Z,99786.81
2023-11-15T09:31:18.701Z,99788.59
2023-11-15T09:34:21.849Z,99778.16
2023-11-15T09:37:24.741Z,99775.19
2023-11-15T09:40:27.662Z,99796.06
2023-11-15T09:43:30.566Z,99795.75
2023-11-15T09:46:32.999Z,99806.19
2023-11-15T09:49:36.720Z,99791.09
2023-11-15T09:52:39.789Z,99802.41
2023-11-15T09:55:43.241Z,99799.41
2023-11-15T09:58:47.358Z,99808.91
2023-11-15T10:01:50.619Z,99814.44
2023-11-15T10:05:12.934Z,99816.28
2023-11-15T10:08:20.856Z,99814.91
2023-11-15T10:11:25.580Z,99824.41
2023-11-15T10:14:30.803Z,99840.81
2023-11-15T10:17:39.645Z,99845.03
2023-11-15T10:20:42.936Z,99827.00
2023-11-15T10:23:45.781Z,99829.25
2023-11-15T10:26:48.355Z,99835.31
2023-11-15T10:29:51.773Z,99831.84
2023-11-15T10:33:04.811Z,99828.16
2023-11-15T10:36:16.598Z,99818.34
2023-11-15T10:39:19.657Z,99827.47
2023-11-15T10:42:24.983Z,99838.81
2023-11-15T10:45:32.061Z,99849.97
2023-11-15T10:48:38.576Z,99842.28
2023-11-15T10:51:42.267Z,99847.75
2023-11-15T10:54:45.385Z,99847.78
2023-11-15T10:57:50.044Z,99845.66
2023-11-15T11:00:55.533Z,99847.34
2023-11-15T11:03:59.406Z,99858.47
2023-11-15T11:07:09.172Z,99853.09
2023-11-15T11:10:16.109Z,99846.34
2023-11-15T11:13:19.557Z,99846.66
2023-11-15T11:19:43.676Z,99848.34
2023-11-15T11:23:04.960Z,99845.72
2023-11-15T11:26:28.518Z,99837.88
2023-11-15T11:29:35.195Z,99837.22
2023-11-15T11:32:39.973Z,99855.66
2023-11-15T11:35:47.209Z,99859.38
2023-11-15T11:38:52.112Z,99851.84
2023-11-15T11:41:55.887Z,99854.34
2023-11-15T11:44:58.803Z,99875.44
2023-11-15T11:48:03.641Z,99855.63
2023-11-15T11:51:07.386Z,99866.69
2023-11-15T11:54:20.029Z,99859.66
2023-11-15T11:57:23.769Z,99870.19
2023-11-15T12:00:26.242Z,99875.34
2023-11-15T12:03:29.467Z,99873.31
2023-11-15T12:06:34.101Z,99880.66
2023-11-15T12:09:41.200Z,99885.50
2023-11-15T12:13:03.693Z,99889.88
2023-11-15T12:16:14.641Z,99903.88
2023-11-15T12:19:20.306Z,99901.56
2023-11-15T12:22:23.222Z,99885.75
2023-11-15T12:25:25.638Z,99902.66
2023-11-15T12:28:31.944Z,99909.59
2023-11-15T12:31:35.366Z,99910.34
2023-11-15T12:34:38.447Z,99907.25
2023-11-15T12:37:41.190Z,99911.94
2023-11-15T12:40:45.724Z,99922.84
2023-11-15T12:43:59.388Z,99925.69
2023-11-15T12:47:02.116Z,99934.13
2023-11-15T12:50:04.592Z,99933.37
2023-11-15T12:53:08.634Z,99933.88
2023-11-15T12:56:21.028Z,99938.97
2023-11-15T12:59:32.637Z,99942.31
2023-11-15T13:02:37.836Z,99935.38
2023-11-15T13:05:40.855Z,99933.56
2023-11-15T13:08:48.972Z,99948.47
2023-11-15T13:11:53.572Z,99951.19
2023-11-15T13:14:56.265Z,99950.50
2023-11-15T13:17:59.562Z,99953.28
2023-11-15T13:21:02.027Z,99954.13
2023-11-15T13:24:04.771Z,99957.50
2023-11-15T13:27:07.173Z,99964.88
2023-11-15T13:30:10.057Z,99970.44
2023-11-15T13:33:12.626Z,99977.53
2023-11-15T13:36:19.594Z,99985.22
2023-11-15T13:39:22.600Z,99979.47
2023-11-15T13:42:25.463Z,99985.97
2023-11-15T13:45:28.198Z,99985.13
2023-11-15T13:48:31.242Z,99989.53
2023-11-15T13:51:34.018Z,99992.28
2023-11-15T13:54:36.744Z,99994.88
2023-11-15T13:57:39.762Z,100003.56
2023-11-15T14:00:42.565Z,100007.81
2023-11-15T14:07:05.340Z,100020.28
2023-11-15T14:10:08.894Z,100014.78
2023-11-15T14:13:11.809Z,100031.97
2023-11-15T14:16:15.056Z,100028.47
2023-11-15T14:19:17.754Z,100034.97
2023-11-15T14:22:21.226Z,100039.50
2023-11-15T14:25:24.529Z,100042.78
2023-11-15T14:28:27.375Z,100029.88
2023-11-15T14:31:30.053Z,100034.59
2023-11-15T14:34:32.866Z,100045.50
2023-11-15T14:37:35.286Z,100053.69
2023-11-15T14:40:39.989Z,100046.87
2023-11-15T14:43:42.602Z,100053.84
2023-11-15T14:46:45.980Z,100064.41
2023-11-15T14:49:49.059Z,100063.78
2023-11-15T14:52:57.084Z,100073.72
2023-11-15T14:55:59.883Z,100079.34
2023-11-15T14:59:02.831Z,100098.78
2023-11-15T15:02:05.163Z,100098.19
2023-11-15T15:05:09.996Z,100100.91
2023-11-15T15:08:14.772Z,100110.41
2023-11-15T15:11:17.391Z,100104.16
2023-11-15T15:14:20.020Z,100103.44
2023-11-15T15:17:25.668Z,100108.00
2023-11-15T15:20:28.610Z,100093.88
2023-11-15T15:23:31.755Z,100093.72
2023-11-15T15:26:34.523Z,100096.19
2023-11-15T15:29:37.091Z,100102.31
2023-11-15T15:32:41.139Z,100107.25
2023-11-15T15:35:44.058Z,100113.41
2023-11-15T15:38:46.941Z,100112.63
2023-11-15T15:41:50.625Z,100120.25
2023-11-15T15:44:53.497Z,100125.66
2023-11-15T15:47:56.831Z,100138.28
2023-11-15T15:50:59.540Z,100131.38
2023-11-15T15:54:02.190Z,100140.75
2023-11-15T15:57:04.826Z,100148.31
2023-11-15T16:00:08.484Z,100150.00
2023-11-15T16:03:11.611Z,100161.47
2023-11-15T16:06:14.726Z,100162.13
2023-11-15T16:09:17.638Z,100168.44
2023-11-15T16:12:20.348Z,100169.31
2023-11-15T16:15:23.353Z,100163.31
2023-11-15T16:18:25.923Z,100177.91
2023-11-15T16:21:28.812Z,100180.81
2023-11-15T16:24:31.135Z,100203.53
2023-11-15T16:27:37.483Z,100204.41
2023-11-15T16:30:40.414Z,100216.53
2023-11-15T16:33:43.382Z,100215.59
2023-11-15T16:36:48.289Z,100226.03
2023-11-15T16:39:52.188Z,100222.59
2023-11-15T16:42:54.890Z,100221.69
2023-11-15T16:45:57.864Z,100226.25
2023-11-15T16:49:00.276Z,100229.12
2023-11-15T16:52:03.401Z,100238.97
2023-11-15T16:55:06.756Z,100239.75
2023-11-15T16:58:12.173Z,100248.56
2023-11-15T17:01:14.914Z,100245.88
2023-11-15T17:04:17.853Z,100247.78
2023-11-15T17:07:20.522Z,100248.13
2023-11-15T17:10:23.595Z,100260.19
2023-11-15T17:13:28.694Z,100261.97
2023-11-15T17:16:32.625Z,100270.00
2023-11-15T17:19:35.286Z,100269.25
2023-11-15T17:22:38.477Z,100280.16
2023-11-15T17:25:41.018Z,100273.47
2023-11-15T17:28:44.404Z,100274.03
2023-11-15T17:31:46.754Z,100271.44
2023-11-15T17:34:50.843Z,100281.00
2023-11-15T17:37:55.302Z,100278.59
2023-11-15T17:40:58.498Z,100277.13
2023-11-15T17:44:04.003Z,100276.62
2023-11-15T17:47:08.534Z,100278.84
2023-11-15T17:50:11.180Z,100288.72
2023-11-15T17:53:15.621Z,100290.97
2023-11-15T17:56:18.060Z,100287.47
2023-11-15T17:59:20.777Z,100291.06
2023-11-15T18:02:23.395Z,100286.06
2023-11-15T18:05:26.388Z,100286.91
2023-11-15T18:08:29.057Z,100284.66
2023-11-15T18:11:31.807Z,100294.63
2023-11-15T18:14:34.296Z,100296.59
2023-11-15T18:17:37.625Z,100301.84
2023-11-15T18:20:43.983Z,100305.50
2023-11-15T18:23:48.030Z,100318.44
2023-11-15T18:26:50.982Z,100315.75
2023-11-15T18:29:54.000Z,100320.00
2023-11-15T18:32:57.325Z,100325.44
2023-11-15T18:36:01.672Z,100335.06
2023-11-15T18:39:04.904Z,100326.41
2023-11-15T18:42:11.861Z,100339.69
2023-11-15T18:45:15.946Z,100340.78
2023-11-15T18:48:18.878Z,100332.72
2023-11-15T18:51:25.607Z,100327.75
2023-11-15T18:54:28.393Z,100342.53
2023-11-15T18:57:31.988Z,100337.22
2023-11-15T19:00:34.688Z,100347.56
2023-11-15T19:03:37.135Z,100349.22
2023-11-15T19:06:40.411Z,100351.19
2023-11-15T19:09:44.683Z,100357.34
2023-11-15T19:12:50.043Z,100354.66
2023-11-15T19:15:52.672Z,100360.97
2023-11-15T19:18:56.400Z,100363.59
2023-11-15T19:21:58.808Z,100361.59
2023-11-15T19:25:01.477Z,100370.38
2023-11-15T19:28:05.888Z,100368.78
2023-11-15T19:31:10.019Z,100362.97
2023-11-15T19:34:14.696Z,100373.84
2023-11-15T19:37:18.095Z,100376.56
2023-11-15T19:40:20.904Z,100388.88
2023-11-15T19:43:23.556Z,100398.72
2023-11-15T19:46:25.982Z,100408.41
2023-11-15T19:49:29.699Z,100412.72
2023-11-15T19:52:32.066Z,100418.88
2023-11-15T19:55:36.708Z,100412.09
2023-11-15T19:58:39.192Z,100409.94
2023-11-15T20:01:42.765Z,100403.88
2023-11-15T20:04:45.461Z,100405.75
2023-11-15T20:07:48.131Z,100400.75
2023-11-15T20:10:52.625Z,100400.84
2023-11-15T20:13:54.947Z,100386.06
2023-11-15T20:16:59.112Z,100395.56
2023-11-15T20:20:01.518Z,100394.50
2023-11-15T20:23:04.438Z,100385.97
2023-11-15T20:26:09.017Z,100382.66
2023-11-15T20:29:12.244Z,100387.13
2023-11-15T20:32:14.874Z,100383.81
2023-11-15T20:35:17.590Z,100390.03
2023-11-15T20:38:20.552Z,100396.22
2023-11-15T20:41:23.108Z,100395.94
2023-11-15T20:44:25.725Z,100392.28
2023-11-15T20:47:28.790Z,100398.84
2023-11-15T20:50:31.282Z,100402.25
2023-11-15T20:53:34.180Z,100407.19
2023-11-15T20:56:37.305Z,100408.84
2023-11-15T20:59:40.395Z,100411.28
2023-11-15T21:02:43.002Z,100404.44
2023-11-15T21:05:47.920Z,100403.37
2023-11-15T21:08:50.771Z,100407.31
2023-11-15T21:11:56.300Z,100422.00
2023-11-15T21:14:59.508Z,100415.12
2023-11-15T21:18:03.867Z,100421.69
2023-11-15T21:21:08.490Z,100420.97
2023-11-15T21:24:11.326Z,100427.69
2023-11-15T21:27:14.034Z,100431.16
2023-11-15T21:30:19.118Z,100434.19
2023-11-15T21:33:21.866Z,100429.06
2023-11-15T21:36:24.817Z,100426.44
2023-11-15T21:39:27.136Z,100432.75
2023-11-15T21:42:29.901Z,100431.88
2023-11-15T21:45:32.765Z,100431.06
2023-11-15T21:48:36.126Z,100430.50
2023-11-15T21:51:38.513Z,100435.84
2023-11-15T21:54:41.145Z,100452.44
2023-11-15T21:57:43.824Z,100442.09
2023-11-15T22:00:47.320Z,100455.13
2023-11-15T22:03:50.418Z,100451.56
2023-11-15T22:06:59.418Z,100465.44
2023-11-15T22:10:13.664Z,100463.81
2023-11-15T22:13:16.658Z,100456.38
2023-11-15T22:16:19.428Z,100458.28
2023-11-15T22:19:22.014Z,100454.31
2023-11-15T22:22:25.222Z,100472.94
2023-11-15T22:25:27.759Z,100471.16
2023-11-15T22:28:31.981Z,100467.56
2023-11-15T22:31:34.877Z,100464.97
2023-11-15T22:34:37.593Z,100467.59
2023-11-15T22:37:39.973Z,100465.75
2023-11-15T22:40:42.896Z,100477.00
2023-11-15T22:43:45.422Z,100474.34
2023-11-15T22:46:48.074Z,100470.03
2023-11-15T22:49:51.171Z,100467.47
2023-11-15T22:52:53.871Z,100472.88
2023-11-15T22:55:56.523Z,100471.34
2023-11-15T22:58:59.207Z,100477.50
2023-11-15T23:02:01.763Z,100482.75
2023-11-15T23:05:04.743Z,100481.88
2023-11-15T23:08:07.919Z,100488.63
2023-11-15T23:11:10.961Z,100487.63
2023-11-15T23:14:14.059Z,100492.66
2023-11-15T23:17:16.875Z,100495.22
2023-11-15T23:20:19.620Z,100500.44
2023-11-15T23:23:22.501Z,100505.59
2023-11-15T23:26:28.986Z,100512.47
2023-11-15T23:29:32.525Z,100526.50
2023-11-15T23:32:35.424Z,100527.00
2023-11-15T23:35:39.163Z,100532.37
2023-11-15T23:38:41.687Z,100538.56
2023-11-15T23:41:45.395Z,100530.47
2023-11-15T23:44:48.293Z,100533.22
2023-11-15T23:47:51.761Z,100535.03
2023-11-15T23:50:57.318Z,100543.00
2023-11-15T23:54:00.342Z,100530.78
2023-11-15T23:57:04.220Z,100530.94
